Tuesday, January 23, 2018, 6:55 PM EST
Back to Local

KIZG, Fryeburg Eastern Slopes Rgnl

Location: Fryeburg, ME, United States Lat: 43.983
Local Time: 6:55 PM EST (23:55 GMT) Lon: -70.95
Time Zone: US/Eastern Elev: 452 ft

Show me the last for .
Show Decoded

2018-01-23 17:54 METAR KIZG 232254Z AUTO 00000KT 6SM BR OVC009 00/00 A2947 RMK AO2 SLP986
                 T00000000 =
2018-01-23 16:54 METAR KIZG 232154Z AUTO 00000KT 10SM BKN007 OVC042 00/00 A2950 RMK AO2
                 UPB24E26FZRAE24B26E37 SLP994 P0002 I1000 T00000000 =
2018-01-23 16:51 METAR KIZG 232151Z AUTO 00000KT 10SM BKN007 OVC042 00/00 A2950 RMK AO2
                 UPB24E26FZRAE24B26E37 P0002 I1000 =
2018-01-23 16:43 METAR KIZG 232143Z AUTO 00000KT 10SM SCT009 OVC042 00/00 A2950 RMK AO2
                 UPB24E26FZRAE24B26E37 P0002 I1000 T00000000 =
2018-01-23 16:04 METAR KIZG 232104Z AUTO 00000KT 3SM -FZRA BR FEW003 SCT028 OVC042 00/00 A2953
                 RMK AO2 P0002 I1000 T00000000 =
2018-01-23 16:02 METAR KIZG 232102Z AUTO 28003KT 2 1/2SM FZRA BR FEW003 SCT034 OVC042 00/00 A2953
                 RMK AO2 P0001 I1000 T00000000 =
2018-01-23 15:54 METAR KIZG 232054Z AUTO 12003KT 1 1/2SM FZRA BR FEW035 OVC042 00/00 A2951 RMK
                 AO2 UPB12E14FZRAE12B14 PRESFR SLP000 P0022 60045 I1001 I3004 T00000000 56031 =
2018-01-23 15:51 METAR KIZG 232051Z AUTO 00000KT 1 1/2SM FZRA BR OVC040 00/00 A2952 RMK AO2
                 UPB12E14FZRAE12B14 PRESFR P0020 I1001 =
2018-01-23 15:29 METAR KIZG 232029Z AUTO 00000KT 2SM FZRA BR FEW005 SCT013 OVC030 00/00 A2956 RMK
                 AO2 UPB12E14FZRAE12B14 P0009 I1001 T00000000 =
2018-01-23 15:25 METAR KIZG 232025Z AUTO 00000KT 1 3/4SM FZRA BR FEW005 SCT013 OVC020 00/00 A2957
                 RMK AO2 UPB12E14FZRAE12B14 P0008 I1001 T00000000 =
2018-01-23 15:16 METAR KIZG 232016Z AUTO VRB03KT 2 1/2SM FZRA BR SCT005 OVC015 00/00 A2958 RMK
                 AO2 UPB12E14FZRAE12B14 P0004 I1000 T00000000 =
2018-01-23 14:54 METAR KIZG 231954Z AUTO 00000KT 3SM -FZRA BR FEW004 OVC015 00/00 A2958 RMK AO2
                 UPE1855FZRAB1855 SLP021 P0012 I1002 T00000000 =
2018-01-23 14:52 METAR KIZG 231952Z AUTO 00000KT 3SM -FZRA BR FEW004 OVC015 00/00 A2957 RMK AO2
                 UPE1855FZRAB1855 P0012 I1002 =
2018-01-23 14:47 METAR KIZG 231947Z AUTO VRB03KT 2SM FZRA BR FEW004 OVC015 00/00 A2958 RMK AO2
                 VIS 1V4 UPE1855FZRAB1855 P0011 I1002 T00000000 =
2018-01-23 14:38 METAR KIZG 231938Z AUTO 34004KT 1 1/4SM FZRA BR FEW005 OVC015 00/00 A2958 RMK
                 AO2 UPE1855FZRAB1855 P0009 I1002 T00000000 =
2018-01-23 14:32 METAR KIZG 231932Z AUTO 00000KT 2 1/2SM FZRA BR FEW005 OVC015 00/00 A2958 RMK
                 AO2 UPE1855FZRAB1855 P0005 I1001 T00000000 =
2018-01-23 14:24 METAR KIZG 231924Z AUTO 00000KT 4SM -FZRA BR FEW005 OVC014 00/00 A2960 RMK AO2
                 UPE1855FZRAB1855 P0002 I1001 T00000000 =
2018-01-23 14:14 METAR KIZG 231914Z AUTO 00000KT 2SM -FZRA BR FEW005 OVC014 00/00 A2959 RMK AO2
                 UPE1855FZRAB1855 P0002 I1001 T00000000 =
2018-01-23 14:01 METAR KIZG 231901Z AUTO 00000KT 2 1/2SM -FZRA BR SCT005 OVC015 00/00 A2961 RMK
                 AO2 UPE1855FZRAB1855 P0001 I1000 T00000000 =
2018-01-23 13:54 METAR KIZG 231854Z AUTO VRB03KT 3SM UP BR SCT005 OVC015 00/00 A2961 RMK AO2
                 UPB12FZRAE12 PRESFR SLP032 P0011 I1001 T00000000 =
2018-01-23 13:46 METAR KIZG 231846Z AUTO 00000KT 7SM UP SCT005 OVC017 00/00 A2962 RMK AO2
                 UPB12FZRAE12 PRESFR P0011 I1000 T00000000 =
2018-01-23 13:35 METAR KIZG 231835Z AUTO 00000KT 3SM UP BR OVC019 00/00 A2964 RMK AO2
                 UPB12FZRAE12 P0010 I1000 T00000000 =
2018-01-23 13:28 METAR KIZG 231828Z AUTO 03003KT 1 1/2SM UP BR BKN017 OVC025 00/00 A2964 RMK AO2
                 UPB12FZRAE12 PRESFR P0010 I1000 T00000000 =
2018-01-23 13:12 METAR KIZG 231812Z AUTO 36003KT 2SM UP BR FEW005 OVC016 M01/M01 A2967 RMK AO2
                 UPB12FZRAE12 P0006 I1000 T10061006 =
2018-01-23 13:09 METAR KIZG 231809Z AUTO 36004KT 1 3/4SM FZRA BR FEW006 OVC016 M01/M01 A2967 RMK
                 AO2 P0006 I1000 T10061006 =
2018-01-23 12:54 METAR KIZG 231754Z AUTO 35003KT 2 1/2SM FZRA BR FEW006 OVC018 M01/M01 A2968 RMK
                 AO2 SLP058 P0024 60061 I1007 I6027 T10061006 11006 21050 56070 =
2018-01-23 12:39 METAR KIZG 231739Z AUTO 05003KT 5SM FZRA BR FEW006 OVC019 M01/M01 A2970 RMK AO2
                 PRESFR P0021 I1006 T10061006 =
2018-01-23 12:31 METAR KIZG 231731Z AUTO 03005KT 2 1/2SM FZRA BR FEW006 BKN019 OVC025 M01/M01
                 A2971 RMK AO2 P0020 I1005 T10061006 =
2018-01-23 11:50 METAR KIZG 231650Z AUTO VRB04KT 1 3/4SM FZRA BR FEW006 OVC019 M01/M01 A2973 RMK
                 AO2 PRESFR SLP075 P0025 I1011 T10111011 =
2018-01-23 11:49 METAR KIZG 231649Z AUTO VRB04KT 1 3/4SM FZRA BR FEW006 BKN016 OVC021 M01/M01
                 A2973 RMK AO2 PRESFR P0025 I1011 =
2018-01-23 11:28 METAR KIZG 231628Z AUTO 04005KT 3SM FZRA BR SCT005 BKN017 OVC028 M02/M02 A2977
                 RMK AO2 PRESFR P0013 I1007 T10171017 =
2018-01-23 11:08 METAR KIZG 231608Z AUTO 00000KT 2 1/2SM FZRA BR BKN005 OVC011 M02/M02 A2981 RMK
                 AO2 P0006 I1003 T10221022 =
2018-01-23 10:54 METAR KIZG 231554Z AUTO 04003KT 3SM FZRA BR BKN004 OVC013 M02/M02 A2983 RMK AO2
                 SLP108 P0011 I1007 T10221022 =
2018-01-23 10:33 METAR KIZG 231533Z AUTO 04003KT 3SM FZRA BR BKN004 OVC012 M03/M03 A2985 RMK AO2
                 PRESFR P0006 I1003 T10281028 =
2018-01-23 10:18 METAR KIZG 231518Z AUTO 00000KT 3SM -FZRA BR OVC004 M03/M03 A2987 RMK AO2 P0003
                 I1002 T10331033 =
2018-01-23 10:05 METAR KIZG 231505Z AUTO 08003KT 2 1/2SM -FZRA BR OVC004 M03/M03 A2988 RMK AO2
                 P0001 I1001 T10331033 =
2018-01-23 09:54 METAR KIZG 231454Z AUTO 07003KT 2 1/2SM -FZRA BR OVC003 M03/M03 A2989 RMK AO2
                 FZRAB20 SLP130 P0001 60001 I1001 I3002 T10331033 56028 =
2018-01-23 09:50 METAR KIZG 231450Z AUTO 00000KT 2SM -FZRA BR OVC003 M03/M03 A2990 RMK AO2
                 FZRAB20 P0001 I1001 =
2018-01-23 09:42 METAR KIZG 231442Z AUTO 00000KT 1 3/4SM -FZRA BR OVC003 M04/M04 A2990 RMK AO2
                 FZRAB20 P0000 I1001 T10391039 =
2018-01-23 09:20 METAR KIZG 231420Z AUTO 00000KT 1 3/4SM -FZRA BR OVC004 M04/M04 A2992 RMK AO2
                 FZRAB20 P0000 I1000 T10391039 =
2018-01-23 09:02 METAR KIZG 231402Z AUTO 00000KT 2SM BR OVC004 M04/M04 A2994 RMK AO2 T10441044 =
2018-01-23 08:54 METAR KIZG 231354Z AUTO 00000KT 1 3/4SM BR OVC004 M04/M04 A2994 RMK AO2 SLP147
                 I1000 T10441044 =
2018-01-23 08:12 METAR KIZG 231312Z AUTO 00000KT 2 1/2SM BR OVC004 M04/M04 A2997 RMK AO2
                 T10441044 =
2018-01-23 07:54 METAR KIZG 231254Z AUTO 05003KT 5SM BR BKN006 OVC012 M04/M04 A2998 RMK AO2
                 FZRAB1156E11 PRESFR SLP160 P0000 I1001 T10441044 =
2018-01-23 07:14 METAR KIZG 231214Z AUTO 00000KT 6SM BR OVC005 M04/M04 A3001 RMK AO2 FZRAB1156E11
                 P0000 I1001 T10441044 =
2018-01-23 07:02 METAR KIZG 231202Z AUTO 04006KT 3SM -FZRA BR OVC004 M04/M04 A2998 RMK AO2
                 FZRAB1156 P0000 I1000 T10441044 =
2018-01-23 06:54 METAR KIZG 231154Z AUTO 36004KT 3SM BR OVC004 M05/M05 A3000 RMK AO2 FZRAB35E52
                 SLP166 P0000 60000 70023 I1003 I6011 T10501050 11050 21056 58042 =
2018-01-23 06:52 METAR KIZG 231152Z AUTO 01004KT 3SM BR OVC004 M05/M05 A3000 RMK AO2 FZRAB35E52
                 P0000 I1003 =
2018-01-23 06:41 METAR KIZG 231141Z AUTO 36005KT 2 1/2SM -FZRA BR OVC004 M05/M05 A3001 RMK AO2
                 FZRAB35 P0000 I1002 T10501050 =
2018-01-23 06:16 METAR KIZG 231116Z AUTO 02004KT 2 1/2SM BR OVC004 M05/M05 A3003 RMK AO2 I1001
                 T10501050 =
2018-01-23 05:54 METAR KIZG 231054Z AUTO 02004KT 4SM BR OVC004 M05/M05 A3005 RMK AO2 SLP182 I1001
                 T10501050 =
2018-01-23 04:54 METAR KIZG 230954Z AUTO 03004KT 3SM BR OVC004 M05/M05 A3008 RMK AO2 SLP195 I1002
                 T10501050 =
2018-01-23 04:46 METAR KIZG 230946Z AUTO 06005KT 3SM BR BKN004 OVC013 M05/M05 A3009 RMK AO2 I1002
                 T10501050 =
2018-01-23 04:35 METAR KIZG 230935Z AUTO 04003KT 2 1/2SM BR BKN004 OVC013 M06/M06 A3010 RMK AO2
                 I1002 T10561056 =
2018-01-23 04:04 METAR KIZG 230904Z AUTO 03004KT 3SM BR OVC004 M06/M06 A3012 RMK AO2 I1001
                 T10561056 =
2018-01-23 03:54 METAR KIZG 230854Z AUTO 04003KT 3SM BR OVC005 M06/M06 A3013 RMK AO2 SLP209 60000
                 I1002 I3005 T10561056 58028 =
2018-01-23 03:26 METAR KIZG 230826Z AUTO 36005KT 2 1/2SM BR OVC006 M06/M06 A3015 RMK AO2 I1001
                 T10561056 =
2018-01-23 02:54 METAR KIZG 230754Z AUTO 04004KT 3SM BR BKN006 OVC014 M06/M06 A3016 RMK AO2
                 SLP221 I1002 T10561056 =
2018-01-23 02:21 METAR KIZG 230721Z AUTO 06006KT 3SM BR SCT006 OVC014 M06/M06 A3018 RMK AO2 I1001
                 T10561056 =
2018-01-23 02:06 METAR KIZG 230706Z AUTO 04005KT 3SM BR BKN007 OVC015 M06/M06 A3019 RMK AO2 I1001
                 T10561056 =
2018-01-23 01:54 METAR KIZG 230654Z AUTO 05006KT 3SM BR SCT008 OVC016 M06/M06 A3019 RMK AO2
                 UPE14SNB0559E10 SLP232 P0000 I1001 T10561056 =
2018-01-23 00:54 METAR KIZG 230554Z AUTO 05004KT 5SM UP BR OVC020 M06/M06 A3021 RMK AO2
                 UPB28SNE24B32E43 SLP238 P0002 60023 T10561056 11050 21056 58019 =
2018-01-23 00:19 METAR KIZG 230519Z AUTO 03003KT 4SM -SN BR OVC021 M06/M06 A3023 RMK AO2 P0001
                 T10561056 =
2018-01-23 00:09 METAR KIZG 230509Z AUTO 01004KT 2 1/2SM -SN BR OVC022 M06/M06 A3024 RMK AO2
                 P0001 T10561056 =
2018-01-22 23:54 METAR KIZG 230454Z AUTO 00000KT 1 1/2SM -SN BR OVC022 M06/M06 A3024 RMK AO2
                 SLP249 P0002 T10561056 400061056 =
2018-01-22 23:46 METAR KIZG 230446Z AUTO 00000KT 1 1/2SM -SN BR OVC021 M06/M06 A3025 RMK AO2
                 P0002 T10561056 =
2018-01-22 23:22 METAR KIZG 230422Z AUTO 03004KT 2SM -SN BR OVC021 M06/M06 A3025 RMK AO2 P0001
                 T10561056 =
2018-01-22 23:09 METAR KIZG 230409Z AUTO 05004KT 1 3/4SM -SN BR BKN015 OVC024 M06/M06 A3026 RMK
                 AO2 P0001 T10561056 =
2018-01-22 22:54 METAR KIZG 230354Z AUTO 05003KT 1SM -SN BR BKN011 OVC024 M06/M06 A3027 RMK AO2
                 SLP257 P0004 T10561056 =
2018-01-22 22:15 METAR KIZG 230315Z AUTO 00000KT 1SM -SN BR VV009 M06/M06 A3029 RMK AO2 P0000
                 T10561056 =
2018-01-22 21:54 METAR KIZG 230254Z AUTO 05003KT 3/4SM -SN BR VV008 M06/M06 A3029 RMK AO2 SLP264
                 P0006 60015 T10561056 58016 =
2018-01-22 21:40 METAR KIZG 230240Z AUTO 04003KT 3/4SM -SN BR VV008 M06/M06 A3029 RMK AO2 P0003
                 T10561056 =
2018-01-22 21:29 METAR KIZG 230229Z AUTO 04003KT 1SM -SN BR VV010 M06/M06 A3029 RMK AO2 P0002
                 T10561056 =
2018-01-22 21:19 METAR KIZG 230219Z AUTO 03003KT 1 3/4SM -SN BR OVC013 M06/M06 A3030 RMK AO2
                 P0002 T10561056 =
2018-01-22 21:16 METAR KIZG 230216Z AUTO 02004KT 2SM -SN BR OVC015 M06/M06 A3030 RMK AO2 P0002
                 T10561056 =
2018-01-22 21:05 METAR KIZG 230205Z AUTO 04005KT 1 1/2SM -SN BR FEW005 OVC017 M06/M06 A3030 RMK
                 AO2 P0001 T10561056 =
2018-01-22 20:53 METAR KIZG 230153Z AUTO 02004KT 1 1/4SM -SN BR FEW005 BKN016 OVC026 M06/M06
                 A3030 RMK AO2 SLP269 P0004 T10561056 =
2018-01-22 20:05 METAR KIZG 230105Z AUTO 05003KT 1SM -SN BR VV012 M05/M05 A3031 RMK AO2 P0000
                 T10501050 =
2018-01-22 19:54 METAR KIZG 230054Z AUTO 04003KT 1 1/4SM -SN BR OVC015 M05/M05 A3032 RMK AO2
                 SLP274 P0005 T10501050 =
2018-01-22 19:38 METAR KIZG 230038Z AUTO 04003KT 1 1/2SM -SN BR OVC015 M05/M05 A3032 RMK AO2
                 P0003 T10501050 =
2018-01-22 19:28 METAR KIZG 230028Z AUTO 08004KT 1SM -SN BR FEW009 OVC013 M05/M05 A3032 RMK AO2
                 P0001 T10501050 =
2018-01-22 19:19 METAR KIZG 230019Z AUTO 06003KT 1 1/4SM -SN BR OVC011 M05/M06 A3033 RMK AO2
                 P0000 T10501056 =
2018-01-22 19:15 METAR KIZG 230015Z AUTO 04003KT 1 3/4SM -SN BR OVC009 M05/M06 A3033 RMK AO2
                 P0000 T10501056 =

Support USWX by starting your Amazon purchase here.